Time;durP1;ratioP1;P1;durP2;ratioP2;P2;SDS_P1;SDS_P2;PMS_P1;PMS_P2;Temp;Humidity;BMP_temperature;BMP_pressure;BME280_temperature;BME280_humidity;BME280_pressure;Samples;Min_cycle;Max_cycle;Signal;HPM_P1;HPM_P2
2023/05/10 00:01:59;;;;;;;3.30;3.00;;;18.70;40.10;;;;;;6220754;23;20208;-86
2023/05/10 00:04:27;;;;;;;4.30;2.97;;;18.70;39.90;;;;;;6220456;23;20134;-83
2023/05/10 00:06:53;;;;;;;3.60;3.30;;;18.70;39.70;;;;;;6195854;23;20171;-81
2023/05/10 00:09:20;;;;;;;3.92;2.95;;;18.70;39.70;;;;;;6195396;23;20142;-82
2023/05/10 00:11:45;;;;;;;3.33;2.95;;;18.70;39.80;;;;;;6170146;23;20261;-85
2023/05/10 00:14:11;;;;;;;3.30;3.00;;;18.70;39.80;;;;;;6195307;23;20180;-82
2023/05/10 00:16:37;;;;;;;5.65;3.22;;;18.80;39.60;;;;;;6220467;23;20180;-84
2023/05/10 00:19:02;;;;;;;3.67;3.38;;;18.70;39.60;;;;;;6220393;23;20232;-84
2023/05/10 00:21:28;;;;;;;3.50;3.20;;;18.70;39.60;;;;;;6247024;23;20145;-85
2023/05/10 00:23:54;;;;;;;3.40;2.97;;;18.70;39.70;;;;;;6195207;23;20134;-81
2023/05/10 00:26:20;;;;;;;3.63;3.10;;;18.70;39.80;;;;;;6221596;23;20150;-83
2023/05/10 00:28:46;;;;;;;3.80;3.00;;;18.70;39.70;;;;;;6195476;23;20156;-82
2023/05/10 00:31:14;;;;;;;3.45;3.05;;;18.70;39.70;;;;;;6194991;23;20207;-85
2023/05/10 00:33:40;;;;;;;5.90;3.67;;;18.70;39.70;;;;;;6220764;23;20492;-84
2023/05/10 00:36:07;;;;;;;4.55;3.15;;;18.70;39.90;;;;;;6170714;23;20141;-83
2023/05/10 00:38:35;;;;;;;3.72;3.35;;;18.70;40.10;;;;;;6195385;23;20133;-85
2023/05/10 00:41:00;;;;;;;4.22;3.47;;;18.70;40.20;;;;;;6194874;23;20149;-81
2023/05/10 00:43:26;;;;;;;5.20;3.33;;;18.70;40.00;;;;;;6194985;23;20187;-81
2023/05/10 00:45:52;;;;;;;3.55;3.25;;;18.70;39.90;;;;;;6194987;23;20153;-83
2023/05/10 00:48:19;;;;;;;4.55;3.13;;;18.70;39.90;;;;;;6220580;23;20244;-83
2023/05/10 00:50:45;;;;;;;3.70;3.33;;;18.70;39.90;;;;;;6246796;23;20172;-82
2023/05/10 00:53:10;;;;;;;4.32;3.30;;;18.70;40.10;;;;;;6220302;23;20520;-84
2023/05/10 00:55:37;;;;;;;6.05;3.45;;;18.70;40.40;;;;;;6220779;23;20145;-82
2023/05/10 00:58:03;;;;;;;3.55;3.20;;;18.70;40.40;;;;;;6194820;23;20476;-82
2023/05/10 01:00:29;;;;;;;3.65;3.30;;;18.60;40.10;;;;;;6246750;23;20136;-84
2023/05/10 01:02:55;;;;;;;4.05;3.10;;;18.70;40.10;;;;;;6246878;23;20230;-82
2023/05/10 01:05:21;;;;;;;4.85;3.13;;;18.70;40.10;;;;;;6195419;23;20232;-84
2023/05/10 01:07:47;;;;;;;3.70;3.30;;;18.70;40.00;;;;;;6220122;23;20619;-80
2023/05/10 01:10:13;;;;;;;3.67;3.38;;;18.70;40.40;;;;;;6246609;23;20569;-82
2023/05/10 01:12:40;;;;;;;3.92;3.53;;;18.60;40.30;;;;;;6140158;23;20204;-82
2023/05/10 01:15:07;;;;;;;4.35;3.15;;;18.60;40.30;;;;;;6163534;23;20241;-85
2023/05/10 01:17:33;;;;;;;3.80;3.40;;;18.60;40.10;;;;;;6064496;23;20149;-82
2023/05/10 01:19:59;;;;;;;4.03;3.10;;;18.60;40.20;;;;;;6139740;23;20149;-85
2023/05/10 01:23:04;;;;;;;5.15;3.35;;;18.70;40.10;;;;;;6139687;23;20232;-82
2023/05/10 01:26:04;;;;;;;4.80;3.60;;;18.60;40.20;;;;;;6139895;23;20236;-82
2023/05/10 01:29:04;;;;;;;4.15;3.00;;;18.60;40.30;;;;;;6144137;23;20149;-82
2023/05/10 01:31:54;;;;;;;5.28;3.15;;;18.60;40.30;;;;;;6164276;23;20184;-81
2023/05/10 01:34:23;;;;;;;3.50;3.10;;;18.60;40.30;;;;;;6064630;23;20150;-84
2023/05/10 01:36:54;;;;;;;3.75;3.38;;;18.60;40.30;;;;;;6164601;23;20187;-82
2023/05/10 01:39:25;;;;;;;4.03;3.38;;;18.60;40.20;;;;;;6140295;23;20134;-82
2023/05/10 01:42:08;;;;;;;3.85;3.25;;;18.60;40.20;;;;;;6164660;23;20183;-84
2023/05/10 01:44:37;;;;;;;3.72;3.40;;;18.60;40.30;;;;;;6164376;23;20177;-83
2023/05/10 01:47:08;;;;;;;3.80;3.33;;;18.70;40.30;;;;;;6140770;23;20458;-83
2023/05/10 01:49:36;;;;;;;4.35;3.17;;;18.60;40.50;;;;;;6161707;23;20207;-84
2023/05/10 01:52:10;;;;;;;3.50;3.20;;;18.60;40.40;;;;;;6064560;23;20170;-81
2023/05/10 01:54:38;;;;;;;3.78;3.40;;;18.60;40.50;;;;;;6064616;23;20134;-83
2023/05/10 01:57:06;;;;;;;3.78;3.47;;;18.70;40.40;;;;;;6139651;23;20576;-82
2023/05/10 01:59:40;;;;;;;5.47;3.30;;;18.60;40.40;;;;;;6140308;23;20580;-84
2023/05/10 02:02:11;;;;;;;3.65;3.35;;;18.60;40.40;;;;;;6135988;23;20133;-85
2023/05/10 02:04:38;;;;;;;3.63;3.30;;;18.60;40.40;;;;;;6162235;23;20138;-83
2023/05/10 02:07:04;;;;;;;4.63;3.33;;;18.60;40.40;;;;;;6162844;23;20138;-83
2023/05/10 02:09:31;;;;;;;3.85;3.45;;;18.60;40.50;;;;;;6064588;23;20142;-84
2023/05/10 02:12:02;;;;;;;3.90;3.50;;;18.60;40.50;;;;;;6159923;23;20181;-84
2023/05/10 02:14:28;;;;;;;4.47;3.47;;;18.60;40.50;;;;;;6219668;23;20137;-84
2023/05/10 02:16:55;;;;;;;3.83;3.53;;;18.60;40.30;;;;;;6219900;23;20554;-83
2023/05/10 02:19:21;;;;;;;4.00;3.60;;;18.60;40.50;;;;;;6219609;23;20130;-81
2023/05/10 02:21:46;;;;;;;3.97;3.40;;;18.60;40.50;;;;;;6220139;23;20212;-81
2023/05/10 02:24:13;;;;;;;3.78;3.38;;;18.60;40.50;;;;;;6219653;23;20612;-81
2023/05/10 02:26:39;;;;;;;3.70;3.40;;;18.60;40.50;;;;;;6220158;23;20150;-82
2023/05/10 02:29:06;;;;;;;4.35;3.30;;;18.60;40.50;;;;;;6219641;23;20172;-83
2023/05/10 02:31:33;;;;;;;4.65;3.58;;;18.50;40.50;;;;;;6221546;23;20172;-85
2023/05/10 02:33:59;;;;;;;3.85;3.35;;;18.60;40.60;;;;;;6248215;23;20130;-84
2023/05/10 02:36:28;;;;;;;4.35;3.60;;;18.60;40.50;;;;;;6196795;23;20141;-82
2023/05/10 02:38:54;;;;;;;3.55;3.20;;;18.60;40.60;;;;;;6197070;23;20130;-83
2023/05/10 02:41:21;;;;;;;4.82;3.50;;;18.60;40.70;;;;;;6221338;23;20144;-82
2023/05/10 02:43:47;;;;;;;4.60;3.53;;;18.60;40.80;;;;;;6222118;23;20134;-83
2023/05/10 02:46:12;;;;;;;4.05;3.60;;;18.50;40.70;;;;;;6171253;23;20576;-83
2023/05/10 02:48:38;;;;;;;3.92;3.53;;;18.50;40.80;;;;;;6221856;23;20569;-83
2023/05/10 02:51:05;;;;;;;3.83;3.45;;;18.50;40.80;;;;;;6196570;23;20623;-83
2023/05/10 02:53:31;;;;;;;4.63;3.70;;;18.60;40.80;;;;;;6221214;23;20156;-83
2023/05/10 02:55:58;;;;;;;4.78;3.80;;;18.50;40.80;;;;;;6195798;23;20199;-83
2023/05/10 02:58:26;;;;;;;5.03;3.75;;;18.50;40.70;;;;;;6247879;23;20137;-82
2023/05/10 03:00:52;;;;;;;3.92;3.50;;;18.50;40.70;;;;;;6196529;23;20492;-84
2023/05/10 03:03:18;;;;;;;3.90;3.50;;;18.50;40.70;;;;;;6221142;23;20140;-85
2023/05/10 03:05:43;;;;;;;3.80;3.50;;;18.50;40.80;;;;;;6221059;23;20134;-81
2023/05/10 03:08:09;;;;;;;3.88;3.42;;;18.50;40.90;;;;;;6220952;23;20145;-82
2023/05/10 03:10:44;;;;;;;3.58;3.28;;;18.50;40.70;;;;;;6247572;23;20564;-84
2023/05/10 03:13:28;;;;;;;3.60;3.30;;;18.50;40.90;;;;;;6247373;23;20181;-84
2023/05/10 03:16:00;;;;;;;3.50;3.20;;;18.60;40.90;;;;;;6247840;23;20134;-84
2023/05/10 03:18:37;;;;;;;3.60;3.25;;;18.50;40.90;;;;;;6221147;23;20129;-82
2023/05/10 03:21:05;;;;;;;4.22;3.78;;;18.50;41.00;;;;;;6197043;23;20631;-82
2023/05/10 03:23:36;;;;;;;5.22;3.75;;;18.50;41.10;;;;;;6196712;23;20505;-80
2023/05/10 03:26:01;;;;;;;4.07;3.33;;;18.50;41.10;;;;;;6195816;23;20222;-83
2023/05/10 03:28:27;;;;;;;4.03;3.50;;;18.50;41.10;;;;;;6247324;23;20580;-81
2023/05/10 03:30:54;;;;;;;4.07;3.60;;;18.50;41.10;;;;;;6220642;23;20236;-82
2023/05/10 03:33:19;;;;;;;4.03;3.63;;;18.50;41.10;;;;;;6195741;23;20130;-83
2023/05/10 03:35:45;;;;;;;4.28;3.88;;;18.50;41.10;;;;;;6247242;23;20133;-82
2023/05/10 03:38:12;;;;;;;3.78;3.45;;;18.50;41.00;;;;;;6220889;23;20137;-84
2023/05/10 03:40:37;;;;;;;4.20;3.80;;;18.50;41.10;;;;;;6171982;23;20543;-83
2023/05/10 03:43:03;;;;;;;3.70;3.40;;;18.50;41.20;;;;;;6195561;23;20130;-83
2023/05/10 03:45:30;;;;;;;3.78;3.45;;;18.50;41.20;;;;;;6220675;23;20183;-84
2023/05/10 03:47:56;;;;;;;4.10;3.40;;;18.50;41.20;;;;;;6195955;23;20213;-81
2023/05/10 03:50:22;;;;;;;4.35;3.25;;;18.40;41.10;;;;;;6220447;23;20129;-84
2023/05/10 03:52:48;;;;;;;4.35;3.80;;;18.50;41.20;;;;;;6220369;23;20168;-84
2023/05/10 03:55:14;;;;;;;3.88;3.47;;;18.50;41.20;;;;;;6220780;23;20213;-83
2023/05/10 03:57:39;;;;;;;3.95;3.60;;;18.50;41.20;;;;;;6220335;23;20145;-82
2023/05/10 04:00:05;;;;;;;3.78;3.38;;;18.50;41.20;;;;;;6170848;23;20572;-81
2023/05/10 04:02:31;;;;;;;4.07;3.50;;;18.50;41.20;;;;;;6195299;23;20146;-82
2023/05/10 04:04:57;;;;;;;4.28;3.85;;;18.50;41.20;;;;;;6220290;23;20511;-83
2023/05/10 04:07:23;;;;;;;4.10;3.70;;;18.50;41.20;;;;;;6246934;23;20137;-82
2023/05/10 04:09:48;;;;;;;3.78;3.47;;;18.50;41.20;;;;;;6247035;23;20137;-82
2023/05/10 04:12:14;;;;;;;3.70;3.00;;;18.50;41.20;;;;;;6246315;23;20499;-81
2023/05/10 04:14:39;;;;;;;3.88;3.47;;;18.50;41.30;;;;;;6195204;23;20192;-81
2023/05/10 04:17:05;;;;;;;3.63;3.20;;;18.50;41.20;;;;;;6246926;23;20616;-81
2023/05/10 04:19:31;;;;;;;3.80;3.50;;;18.50;41.20;;;;;;6220600;23;20138;-80
2023/05/10 04:21:57;;;;;;;4.10;3.50;;;18.50;41.10;;;;;;6220100;23;20519;-80
2023/05/10 04:24:23;;;;;;;3.67;3.38;;;18.50;40.90;;;;;;6170396;23;20149;-83
2023/05/10 04:26:49;;;;;;;3.80;3.40;;;18.70;41.10;;;;;;6247070;23;20138;-81
2023/05/10 04:29:15;;;;;;;3.88;3.58;;;18.60;40.80;;;;;;6220147;23;20165;-80
2023/05/10 04:31:40;;;;;;;3.78;3.40;;;18.60;40.90;;;;;;6219937;23;20161;-82
2023/05/10 04:34:06;;;;;;;4.25;3.80;;;18.70;40.90;;;;;;6220244;23;20232;-82
2023/05/10 04:36:35;;;;;;;4.18;3.78;;;18.70;40.90;;;;;;6170085;23;20523;-82
2023/05/10 04:39:02;;;;;;;3.75;3.30;;;18.70;40.80;;;;;;6246656;23;20169;-82
2023/05/10 04:41:28;;;;;;;4.35;3.60;;;18.70;41.00;;;;;;6196079;23;20129;-83
2023/05/10 04:43:53;;;;;;;4.13;3.72;;;18.70;40.90;;;;;;6195247;23;20137;-80
2023/05/10 04:46:19;;;;;;;4.10;3.70;;;18.70;40.80;;;;;;6219953;23;20150;-80
2023/05/10 04:48:45;;;;;;;4.60;3.97;;;18.60;40.80;;;;;;6246792;23;20133;-82
2023/05/10 04:51:10;;;;;;;3.70;3.40;;;18.70;40.80;;;;;;6219713;23;20177;-82
2023/05/10 04:53:36;;;;;;;4.03;3.67;;;18.70;40.70;;;;;;6194562;23;20465;-83
2023/05/10 04:56:02;;;;;;;3.83;3.42;;;18.80;40.60;;;;;;6246473;23;20134;-82
2023/05/10 04:58:27;;;;;;;3.80;3.45;;;18.80;40.80;;;;;;6194634;23;20595;-81
2023/05/10 05:00:53;;;;;;;4.00;3.60;;;18.80;40.60;;;;;;6219781;23;20137;-84
2023/05/10 05:03:19;;;;;;;3.60;3.30;;;18.80;41.30;;;;;;6194878;23;20141;-81
2023/05/10 05:05:44;;;;;;;3.78;3.33;;;18.70;40.50;;;;;;6246441;23;20133;-83
2023/05/10 05:08:10;;;;;;;3.78;3.38;;;18.70;40.50;;;;;;6169004;23;20631;-82
2023/05/10 05:10:36;;;;;;;4.10;3.70;;;18.80;40.60;;;;;;6194488;23;20143;-81
2023/05/10 05:13:01;;;;;;;4.43;3.58;;;18.80;40.50;;;;;;6170033;23;20566;-84
2023/05/10 05:15:27;;;;;;;3.95;3.53;;;18.80;41.20;;;;;;6194668;23;20169;-82
2023/05/10 05:17:53;;;;;;;4.18;3.60;;;18.80;40.40;;;;;;6219683;23;20203;-82
2023/05/10 05:20:18;;;;;;;4.28;3.88;;;18.80;40.50;;;;;;6194655;23;20130;-84
2023/05/10 05:22:44;;;;;;;4.18;3.78;;;18.80;40.50;;;;;;6246483;23;20208;-82
2023/05/10 05:25:11;;;;;;;3.90;3.58;;;18.80;40.50;;;;;;6219748;23;20216;-84
2023/05/10 05:27:38;;;;;;;4.07;3.67;;;18.90;40.40;;;;;;6220162;23;20134;-81
2023/05/10 05:30:04;;;;;;;3.88;3.47;;;18.80;40.50;;;;;;6246285;23;20129;-84
2023/05/10 05:32:30;;;;;;;3.80;3.33;;;18.80;40.50;;;;;;6219804;23;20487;-82
2023/05/10 05:34:55;;;;;;;3.97;3.58;;;18.90;40.60;;;;;;6219629;23;20126;-82
2023/05/10 05:37:22;;;;;;;3.78;3.42;;;18.90;40.60;;;;;;6219525;23;20569;-82
2023/05/10 05:39:48;;;;;;;5.05;3.53;;;18.90;40.40;;;;;;6219695;23;20130;-81
2023/05/10 05:42:14;;;;;;;3.83;3.08;;;18.90;40.50;;;;;;6219610;23;20216;-81
2023/05/10 05:44:40;;;;;;;3.80;3.40;;;18.90;40.50;;;;;;6219623;23;20561;-83
2023/05/10 05:47:06;;;;;;;4.00;3.60;;;18.90;40.50;;;;;;6219420;23;20133;-82
2023/05/10 05:49:31;;;;;;;3.97;3.58;;;18.90;40.30;;;;;;6194467;23;20560;-83
2023/05/10 05:52:00;;;;;;;4.22;3.58;;;18.90;40.30;;;;;;6219306;23;20158;-82
2023/05/10 05:54:27;;;;;;;4.07;3.58;;;19.00;40.40;;;;;;6219362;23;20157;-84
2023/05/10 05:56:56;;;;;;;3.97;3.58;;;19.00;40.40;;;;;;6195335;23;20137;-82
2023/05/10 05:59:22;;;;;;;4.43;3.40;;;18.90;40.40;;;;;;6246182;23;20153;-82
2023/05/10 06:01:47;;;;;;;4.03;3.53;;;18.90;40.30;;;;;;6169641;23;20145;-82
2023/05/10 06:04:13;;;;;;;3.85;3.53;;;18.90;40.40;;;;;;6246453;23;20138;-81
2023/05/10 06:06:39;;;;;;;3.92;3.63;;;19.00;41.00;;;;;;6248256;23;20138;-84
2023/05/10 06:09:04;;;;;;;4.07;3.67;;;19.00;40.30;;;;;;6196113;23;20149;-85
2023/05/10 06:11:32;;;;;;;3.80;3.47;;;19.00;40.60;;;;;;6221347;23;20585;-83
2023/05/10 06:13:59;;;;;;;4.00;3.60;;;19.00;40.90;;;;;;6196690;23;20640;-82
2023/05/10 06:16:25;;;;;;;4.13;3.40;;;19.00;41.00;;;;;;6248809;23;20553;-82
2023/05/10 06:18:50;;;;;;;3.70;3.40;;;19.00;41.20;;;;;;6197008;23;20180;-81
2023/05/10 06:21:16;;;;;;;5.05;3.60;;;19.00;41.30;;;;;;6248474;23;20134;-82
2023/05/10 06:23:42;;;;;;;6.75;3.80;;;19.10;41.70;;;;;;6221924;23;20149;-82
2023/05/10 06:26:08;;;;;;;4.25;3.70;;;19.10;41.30;;;;;;6222115;23;20149;-82
2023/05/10 06:28:40;;;;;;;3.80;3.40;;;19.10;41.40;;;;;;6222181;23;20152;-84
2023/05/10 06:31:06;;;;;;;4.03;3.63;;;19.10;41.10;;;;;;6173507;23;20173;-84
2023/05/10 06:33:32;;;;;;;4.05;3.65;;;19.20;41.00;;;;;;6223719;23;20515;-81
2023/05/10 06:35:58;;;;;;;3.90;3.55;;;19.10;41.00;;;;;;6223120;23;20129;-81
2023/05/10 06:38:24;;;;;;;3.58;3.28;;;19.20;41.10;;;;;;6222861;23;20168;-83
2023/05/10 06:40:49;;;;;;;5.35;3.58;;;19.20;40.70;;;;;;6249383;23;20461;-81
2023/05/10 06:43:16;;;;;;;4.40;3.40;;;19.10;40.70;;;;;;6222466;23;20153;-82
2023/05/10 06:45:42;;;;;;;4.35;3.70;;;19.10;40.80;;;;;;6221916;23;20133;-84
2023/05/10 06:48:07;;;;;;;3.95;3.53;;;19.00;41.10;;;;;;6197292;23;20176;-84
2023/05/10 06:50:48;;;;;;;4.10;3.70;;;19.00;41.10;;;;;;6222411;23;20202;-83
2023/05/10 06:53:15;;;;;;;4.68;3.67;;;19.00;41.00;;;;;;6104952;23;20264;-81
2023/05/10 06:55:40;;;;;;;4.05;3.65;;;18.80;41.10;;;;;;6103254;23;20239;-84
2023/05/10 06:58:06;;;;;;;4.07;3.40;;;18.80;41.40;;;;;;6080043;23;20172;-83
2023/05/10 07:00:32;;;;;;;4.72;3.50;;;18.80;41.60;;;;;;6106585;23;20231;-82
2023/05/10 07:02:58;;;;;;;4.15;3.40;;;18.80;41.60;;;;;;6106286;23;20583;-82
2023/05/10 07:05:23;;;;;;;5.15;3.58;;;18.90;42.30;;;;;;6104962;23;20151;-82
2023/05/10 07:07:51;;;;;;;4.38;3.67;;;18.90;41.70;;;;;;6101890;23;20231;-84
2023/05/10 07:10:17;;;;;;;4.95;3.70;;;18.80;41.80;;;;;;6101657;23;20129;-84
2023/05/10 07:12:43;;;;;;;7.22;3.50;;;18.80;41.90;;;;;;6125546;23;20254;-82
2023/05/10 07:15:09;;;;;;;3.92;3.40;;;18.80;42.00;;;;;;6102604;23;20145;-82
2023/05/10 07:17:34;;;;;;;4.85;3.42;;;18.80;42.10;;;;;;6126537;23;20143;-81
2023/05/10 07:20:01;;;;;;;5.70;3.13;;;18.80;42.20;;;;;;6101133;23;20152;-82
2023/05/10 07:22:26;;;;;;;4.78;3.15;;;18.80;42.30;;;;;;6077719;23;20167;-84
2023/05/10 07:24:52;;;;;;;4.20;3.38;;;18.70;42.30;;;;;;6176919;23;20157;-84
2023/05/10 07:27:18;;;;;;;3.58;3.28;;;18.70;42.40;;;;;;6198339;23;20200;-81
2023/05/10 07:29:43;;;;;;;3.60;3.30;;;18.80;42.30;;;;;;6248468;23;20134;-85
2023/05/10 07:32:43;;;;;;;3.90;3.53;;;18.80;42.30;;;;;;6221232;23;20184;-82
2023/05/10 07:35:09;;;;;;;3.80;3.20;;;18.80;42.20;;;;;;6222021;23;20141;-84
2023/05/10 07:37:36;;;;;;;3.80;3.40;;;18.80;42.30;;;;;;6248008;23;20130;-83
2023/05/10 07:40:04;;;;;;;3.22;2.92;;;18.80;42.20;;;;;;6196653;23;20572;-81
2023/05/10 07:42:30;;;;;;;3.83;3.30;;;18.90;42.20;;;;;;6221336;23;20140;-84
2023/05/10 07:44:56;;;;;;;3.45;3.15;;;18.80;42.20;;;;;;6172191;23;20224;-84
2023/05/10 07:47:23;;;;;;;4.05;3.00;;;18.80;42.20;;;;;;6196842;23;20523;-84
2023/05/10 07:49:49;;;;;;;3.47;3.17;;;18.90;42.20;;;;;;6196354;23;20454;-84
2023/05/10 07:52:15;;;;;;;3.53;3.20;;;18.90;42.20;;;;;;6221376;23;20161;-82
2023/05/10 07:54:40;;;;;;;3.65;3.22;;;18.90;42.30;;;;;;6248034;23;20130;-84
2023/05/10 07:57:07;;;;;;;5.55;3.20;;;18.90;42.10;;;;;;6197166;23;20279;-83
2023/05/10 07:59:33;;;;;;;3.28;2.97;;;18.90;41.90;;;;;;6172003;23;20222;-83
2023/05/10 08:02:19;;;;;;;4.72;3.28;;;18.90;42.10;;;;;;6221864;23;20436;-82
2023/05/10 08:04:46;;;;;;;3.60;3.30;;;18.90;42.10;;;;;;6222219;23;20134;-83
2023/05/10 08:07:11;;;;;;;4.38;3.08;;;18.90;42.00;;;;;;6197365;23;20137;-84
2023/05/10 08:09:37;;;;;;;5.80;3.10;;;18.90;42.10;;;;;;6222112;23;20146;-85
2023/05/10 08:12:03;;;;;;;3.70;3.28;;;18.90;42.00;;;;;;6220406;23;20197;-84
2023/05/10 08:14:30;;;;;;;3.97;3.42;;;19.00;41.90;;;;;;6195144;23;20465;-83
2023/05/10 08:16:56;;;;;;;4.15;3.10;;;19.00;41.80;;;;;;6220662;23;20149;-84
2023/05/10 08:19:22;;;;;;;4.47;2.97;;;19.00;41.70;;;;;;6246921;23;20157;-82
2023/05/10 08:21:48;;;;;;;5.18;3.10;;;19.00;41.90;;;;;;6220479;23;20607;-83
2023/05/10 08:24:13;;;;;;;6.03;3.50;;;19.00;41.70;;;;;;6220166;23;20133;-85
2023/05/10 08:26:40;;;;;;;4.45;3.10;;;19.00;41.70;;;;;;6219814;23;20213;-85
2023/05/10 08:29:06;;;;;;;3.40;2.80;;;19.00;41.70;;;;;;6247216;23;20151;-84
2023/05/10 08:31:31;;;;;;;3.58;3.15;;;18.90;41.80;;;;;;6220690;23;20181;-84
2023/05/10 08:33:57;;;;;;;4.10;3.00;;;18.90;41.90;;;;;;6223932;23;20138;-87
2023/05/10 08:36:25;;;;;;;7.45;3.20;;;19.00;42.00;;;;;;6223227;23;20157;-85
2023/05/10 08:38:51;;;;;;;2.83;2.63;;;19.00;41.90;;;;;;6223732;23;20212;-82
2023/05/10 08:41:20;;;;;;;5.68;2.83;;;19.00;41.70;;;;;;6171980;23;20200;-82
2023/05/10 08:43:46;;;;;;;5.07;3.20;;;19.10;41.40;;;;;;6247446;23;20130;-82
2023/05/10 08:46:15;;;;;;;4.57;2.90;;;19.10;41.40;;;;;;6220512;23;20164;-83
2023/05/10 08:48:41;;;;;;;13.10;3.13;;;19.10;41.30;;;;;;6246490;23;20177;-82
2023/05/10 08:51:06;;;;;;;3.92;3.15;;;19.10;41.20;;;;;;6195334;23;20648;-83
2023/05/10 08:53:33;;;;;;;3.67;3.05;;;19.10;41.40;;;;;;6220118;23;20205;-82
2023/05/10 08:55:59;;;;;;;5.88;2.90;;;19.10;41.30;;;;;;6219976;23;20236;-81
2023/05/10 08:58:24;;;;;;;4.97;3.22;;;19.20;41.10;;;;;;6220438;23;20166;-83
2023/05/10 09:00:52;;;;;;;4.75;2.92;;;19.30;41.00;;;;;;6194970;23;20146;-83
2023/05/10 09:03:17;;;;;;;4.55;2.90;;;19.20;40.90;;;;;;6195726;23;20228;-82
2023/05/10 09:05:44;;;;;;;2.95;2.67;;;19.20;41.00;;;;;;6220119;23;20157;-82
2023/05/10 09:08:10;;;;;;;3.58;3.00;;;19.20;41.00;;;;;;6195668;23;20130;-81
2023/05/10 09:10:36;;;;;;;3.17;2.75;;;19.20;41.00;;;;;;6220209;23;20232;-84
2023/05/10 09:13:04;;;;;;;3.15;2.85;;;19.10;41.00;;;;;;6246798;23;20247;-82
2023/05/10 09:15:30;;;;;;;3.97;2.90;;;19.20;40.90;;;;;;6170100;23;20212;-82
2023/05/10 09:17:57;;;;;;;3.35;2.92;;;19.20;40.80;;;;;;6219792;23;20137;-82
2023/05/10 09:20:24;;;;;;;6.22;3.15;;;19.30;40.90;;;;;;6221229;23;20154;-85
2023/05/10 09:22:51;;;;;;;6.40;3.10;;;19.30;40.80;;;;;;6219729;23;20157;-83
2023/05/10 09:25:17;;;;;;;3.25;2.92;;;19.30;40.70;;;;;;6220027;23;20134;-82
2023/05/10 09:27:46;;;;;;;4.78;3.08;;;19.30;40.40;;;;;;6194875;23;20137;-82
2023/05/10 09:30:23;;;;;;;3.30;3.00;;;19.40;40.30;;;;;;6196267;23;20198;-82
2023/05/10 09:32:48;;;;;;;5.65;3.05;;;19.40;40.20;;;;;;6171624;23;20199;-84
2023/05/10 09:35:15;;;;;;;3.25;2.95;;;19.40;40.10;;;;;;6220118;23;20478;-82
2023/05/10 09:37:42;;;;;;;4.82;2.72;;;19.40;40.10;;;;;;6170277;23;20138;-82
2023/05/10 09:40:13;;;;;;;3.97;3.10;;;19.40;40.30;;;;;;6220244;23;20631;-83
2023/05/10 09:42:42;;;;;;;3.63;3.20;;;19.30;40.30;;;;;;6220394;23;20134;-84
2023/05/10 09:45:08;;;;;;;3.85;2.63;;;19.30;40.50;;;;;;6195988;23;20165;-82
2023/05/10 09:47:34;;;;;;;2.80;2.60;;;19.30;40.40;;;;;;6247123;23;20133;-84
2023/05/10 09:50:03;;;;;;;3.17;2.75;;;19.40;40.40;;;;;;6195418;23;20145;-82
2023/05/10 09:52:31;;;;;;;3.28;2.70;;;19.30;40.30;;;;;;6196641;23;20492;-84
2023/05/10 09:54:57;;;;;;;3.13;2.67;;;19.30;40.30;;;;;;6197280;23;20134;-81
2023/05/10 09:57:23;;;;;;;3.22;2.92;;;19.30;40.40;;;;;;6221488;23;20500;-83
2023/05/10 09:59:49;;;;;;;4.25;2.80;;;19.30;40.40;;;;;;6198628;23;20153;-85
2023/05/10 10:02:18;;;;;;;3.38;2.95;;;19.30;40.20;;;;;;6223593;23;20153;-83
2023/05/10 10:04:44;;;;;;;3.50;3.20;;;19.40;40.20;;;;;;6223226;23;20145;-83
2023/05/10 10:07:09;;;;;;;3.80;2.95;;;19.40;40.20;;;;;;6197664;23;20144;-84
2023/05/10 10:09:35;;;;;;;3.50;2.80;;;19.40;40.10;;;;;;6199220;23;20137;-83
2023/05/10 10:12:01;;;;;;;3.03;2.78;;;19.40;40.10;;;;;;6195360;23;20172;-82
2023/05/10 10:14:28;;;;;;;2.95;2.65;;;19.50;40.00;;;;;;6199501;23;20138;-84
2023/05/10 10:16:55;;;;;;;3.88;2.50;;;19.50;40.00;;;;;;6224384;23;20154;-82
2023/05/10 10:19:22;;;;;;;3.90;2.95;;;19.50;39.80;;;;;;6198828;23;20130;-83
2023/05/10 10:21:49;;;;;;;6.00;2.80;;;19.60;39.70;;;;;;6222445;23;20144;-84
2023/05/10 10:24:17;;;;;;;5.68;3.00;;;19.50;39.60;;;;;;6250117;23;20210;-84
2023/05/10 10:26:43;;;;;;;4.20;2.60;;;19.40;39.80;;;;;;6249074;23;20142;-82
2023/05/10 10:29:25;;;;;;;3.53;2.80;;;19.50;39.80;;;;;;6222764;23;20179;-83
2023/05/10 10:32:05;;;;;;;4.03;2.75;;;19.30;39.70;;;;;;6250524;23;20218;-82
2023/05/10 10:34:30;;;;;;;3.00;2.70;;;19.40;39.60;;;;;;6173519;23;20160;-82
2023/05/10 10:36:57;;;;;;;3.45;2.65;;;19.40;39.50;;;;;;6197615;23;20133;-82
2023/05/10 10:39:25;;;;;;;3.63;2.33;;;19.40;39.60;;;;;;6222487;23;20160;-84
2023/05/10 10:41:53;;;;;;;2.75;2.42;;;19.40;39.50;;;;;;6198183;23;20153;-83
2023/05/10 10:44:25;;;;;;;6.43;2.63;;;19.40;39.40;;;;;;6222871;23;20138;-85
2023/05/10 10:47:00;;;;;;;6.28;2.80;;;19.40;39.20;;;;;;6248363;23;20580;-84
2023/05/10 10:49:27;;;;;;;9.85;3.45;;;19.40;39.10;;;;;;6196589;23;20226;-82
2023/05/10 10:52:23;;;;;;;7.57;2.90;;;19.30;39.00;;;;;;6224524;23;20217;-83
2023/05/10 10:54:52;;;;;;;7.20;3.05;;;19.40;39.10;;;;;;6226187;23;20199;-83
2023/05/10 10:57:18;;;;;;;5.65;2.90;;;19.40;38.90;;;;;;6227406;23;20157;-82
2023/05/10 10:59:46;;;;;;;5.13;2.80;;;19.40;38.70;;;;;;6227353;23;20136;-82
2023/05/10 11:02:34;;;;;;;4.53;2.72;;;19.30;38.70;;;;;;6183201;23;20161;-82
2023/05/10 11:05:41;;;;;;;5.25;2.65;;;19.30;38.60;;;;;;6260563;23;20134;-85
2023/05/10 11:08:13;;;;;;;3.40;2.72;;;19.30;38.60;;;;;;6232703;23;20490;-84
2023/05/10 11:10:39;;;;;;;4.32;2.80;;;19.30;38.80;;;;;;6184359;23;20153;-84
2023/05/10 11:13:06;;;;;;;2.67;2.47;;;19.30;38.70;;;;;;6142601;23;20220;-81
2023/05/10 11:15:38;;;;;;;4.22;3.03;;;19.30;38.80;;;;;;6117976;23;20159;-84
2023/05/10 11:18:21;;;;;;;2.95;2.55;;;19.40;38.70;;;;;;6139518;23;20230;-83
2023/05/10 11:21:04;;;;;;;3.42;2.60;;;19.40;38.40;;;;;;6118152;23;20151;-83
2023/05/10 11:23:34;;;;;;;4.00;2.65;;;19.40;38.30;;;;;;6145427;23;20183;-84
2023/05/10 11:26:01;;;;;;;5.20;2.90;;;19.40;38.30;;;;;;6063732;23;20157;-83
2023/05/10 11:28:29;;;;;;;2.92;2.60;;;19.40;38.30;;;;;;6063305;23;20169;-85
2023/05/10 11:30:55;;;;;;;3.15;2.55;;;19.40;38.30;;;;;;6107911;23;20236;-84
2023/05/10 11:33:22;;;;;;;4.63;2.85;;;19.40;38.20;;;;;;6062391;23;20153;-85
2023/05/10 11:35:48;;;;;;;3.05;2.75;;;19.40;38.00;;;;;;6062424;23;20148;-82
2023/05/10 11:38:14;;;;;;;3.05;2.70;;;19.50;38.00;;;;;;6061377;23;20149;-81
2023/05/10 11:40:40;;;;;;;3.60;2.60;;;19.50;38.10;;;;;;6058908;23;20189;-84
2023/05/10 11:43:11;;;;;;;3.90;2.50;;;19.50;38.10;;;;;;6060522;23;20157;-82
2023/05/10 11:45:37;;;;;;;4.00;2.50;;;19.50;37.90;;;;;;6061649;23;20152;-82
2023/05/10 11:48:03;;;;;;;4.22;2.70;;;19.50;37.90;;;;;;6035562;23;20586;-83
2023/05/10 11:50:28;;;;;;;3.35;2.55;;;19.50;38.00;;;;;;6111761;23;20143;-84
2023/05/10 11:52:56;;;;;;;3.38;2.63;;;19.40;38.00;;;;;;6095169;23;20190;-83
2023/05/10 11:55:22;;;;;;;6.53;2.75;;;19.40;38.00;;;;;;6095121;23;20143;-82
2023/05/10 11:57:51;;;;;;;2.97;2.67;;;19.40;37.90;;;;;;6171409;23;20153;-84
2023/05/10 12:00:17;;;;;;;3.15;2.55;;;19.50;37.80;;;;;;6179025;23;20141;-82
2023/05/10 12:02:43;;;;;;;3.08;2.60;;;19.50;37.80;;;;;;6201191;23;20152;-85
2023/05/10 12:05:09;;;;;;;2.60;2.40;;;19.50;37.70;;;;;;6225986;23;20236;-85
2023/05/10 12:07:36;;;;;;;4.03;2.70;;;19.50;37.60;;;;;;6228031;23;20160;-84
2023/05/10 12:10:08;;;;;;;3.40;2.75;;;19.50;37.60;;;;;;6199180;23;20134;-84
2023/05/10 12:12:48;;;;;;;3.70;2.22;;;19.50;38.30;;;;;;6200835;23;20193;-84
2023/05/10 12:15:22;;;;;;;3.65;2.70;;;19.50;37.70;;;;;;6198622;23;20148;-86
2023/05/10 12:17:48;;;;;;;3.15;2.85;;;19.50;37.50;;;;;;6202233;23;20130;-84
2023/05/10 12:20:18;;;;;;;2.80;2.60;;;19.50;37.50;;;;;;6176825;23;20255;-82
2023/05/10 12:23:06;;;;;;;2.90;2.30;;;19.50;37.40;;;;;;6200212;23;20133;-82
2023/05/10 12:25:34;;;;;;;2.88;2.67;;;19.50;37.40;;;;;;6185545;23;20203;-82
2023/05/10 12:28:02;;;;;;;2.83;2.53;;;19.50;37.30;;;;;;6177600;23;20600;-81
2023/05/10 12:30:36;;;;;;;2.67;2.47;;;19.50;37.30;;;;;;6200648;23;20165;-84
2023/05/10 12:33:20;;;;;;;;;;;;;;;;;;;;;
2023/05/10 12:35:49;;;;;;;2.40;2.20;;;19.60;37.20;;;;;;6115025;23;20175;-82
2023/05/10 12:38:54;;;;;;;3.20;2.40;;;19.60;37.20;;;;;;6111198;23;20204;-82
2023/05/10 12:41:24;;;;;;;2.90;2.60;;;19.60;36.90;;;;;;6156299;23;20155;-81
2023/05/10 12:44:13;;;;;;;3.40;2.60;;;19.60;36.90;;;;;;6108958;23;20223;-81
2023/05/10 12:46:39;;;;;;;5.28;2.20;;;19.60;36.90;;;;;;6156108;23;20233;-81
2023/05/10 12:49:04;;;;;;;3.63;2.33;;;19.60;36.70;;;;;;6155718;23;20579;-82
2023/05/10 12:51:31;;;;;;;3.65;2.72;;;19.60;36.60;;;;;;6131127;23;20183;-82
2023/05/10 12:53:56;;;;;;;2.47;2.28;;;19.60;36.50;;;;;;6155706;23;20151;-82